Time;durP1;ratioP1;P1;durP2;ratioP2;P2;SDS_P1;SDS_P2;PMS_P1;PMS_P2;Temp;Humidity;BMP_temperature;BMP_pressure;BME280_temperature;BME280_humidity;BME280_pressure;Samples;Min_cycle;Max_cycle;Signal;HPM_P1;HPM_P2
2021/03/11 00:01:59;;;;;;;5.50;1.37;;;-13.00;38.40;;;;;;4293954;33;20142;-35
2021/03/11 00:04:25;;;;;;;3.30;1.23;;;-13.10;38.60;;;;;;4293531;33;20075;-38
2021/03/11 00:06:52;;;;;;;3.13;1.50;;;-13.10;38.70;;;;;;4281789;33;20075;-38
2021/03/11 00:09:18;;;;;;;2.93;1.00;;;-13.20;38.70;;;;;;4293929;33;20170;-39
2021/03/11 00:11:45;;;;;;;5.90;1.33;;;-13.20;38.90;;;;;;4301026;33;20082;-38
2021/03/11 00:14:12;;;;;;;3.17;1.27;;;-13.30;39.00;;;;;;4327961;33;20071;-35
2021/03/11 00:16:38;;;;;;;6.60;1.70;;;-13.30;39.00;;;;;;4352242;32;20535;-43
2021/03/11 00:19:05;;;;;;;4.07;0.90;;;-13.30;38.90;;;;;;4386566;32;20054;-36
2021/03/11 00:21:31;;;;;;;8.07;1.43;;;-13.30;39.00;;;;;;4348909;32;20070;-36
2021/03/11 00:23:58;;;;;;;2.60;1.17;;;-13.30;39.00;;;;;;4387341;32;20517;-36
2021/03/11 00:26:24;;;;;;;3.07;1.10;;;-13.30;39.00;;;;;;4361174;32;20067;-36
2021/03/11 00:28:51;;;;;;;3.00;1.27;;;-13.30;38.90;;;;;;4354423;32;20146;-36
2021/03/11 00:31:17;;;;;;;5.33;1.27;;;-13.30;38.80;;;;;;4345322;32;20074;-36
2021/03/11 00:33:44;;;;;;;2.97;1.40;;;-13.20;38.90;;;;;;4345740;32;20074;-36
2021/03/11 00:36:10;;;;;;;6.97;1.17;;;-13.20;38.80;;;;;;4345388;32;20067;-37
2021/03/11 00:38:37;;;;;;;4.50;0.90;;;-13.30;38.70;;;;;;4332986;32;20081;-37
2021/03/11 00:41:03;;;;;;;6.70;1.23;;;-13.20;38.80;;;;;;4333091;32;20070;-36
2021/03/11 00:43:30;;;;;;;6.30;0.90;;;-13.20;38.60;;;;;;4357389;32;20098;-39
2021/03/11 00:45:56;;;;;;;2.87;1.00;;;-13.10;38.60;;;;;;4345098;32;20654;-39
2021/03/11 00:48:23;;;;;;;2.10;0.90;;;-13.00;38.50;;;;;;4345131;32;20470;-38
2021/03/11 00:50:49;;;;;;;3.20;0.80;;;-12.90;38.40;;;;;;4312637;33;20155;-36
2021/03/11 00:53:16;;;;;;;0.87;0.47;;;-12.90;38.10;;;;;;4289135;33;20068;-36
2021/03/11 00:55:42;;;;;;;0.57;0.30;;;-12.80;38.00;;;;;;4288873;33;20575;-36
2021/03/11 00:58:09;;;;;;;1.77;0.43;;;-12.80;37.80;;;;;;4313059;33;20154;-39
2021/03/11 01:00:36;;;;;;;2.93;0.80;;;-12.60;37.70;;;;;;4336740;33;20144;-36
2021/03/11 01:03:03;;;;;;;2.07;0.70;;;-12.60;37.50;;;;;;4342486;33;20055;-36
2021/03/11 01:05:30;;;;;;;0.53;0.20;;;-12.50;37.50;;;;;;4342718;33;20612;-36
2021/03/11 01:07:56;;;;;;;2.10;0.60;;;-12.50;37.30;;;;;;4342298;33;20165;-36
2021/03/11 01:10:23;;;;;;;5.90;1.00;;;-12.40;37.20;;;;;;4342116;33;20074;-36
2021/03/11 01:12:50;;;;;;;3.87;0.83;;;-12.40;37.00;;;;;;4330129;33;20086;-35
2021/03/11 01:15:16;;;;;;;3.57;1.10;;;-12.40;37.00;;;;;;4342250;33;20595;-35
2021/03/11 01:17:43;;;;;;;4.60;1.20;;;-12.50;37.10;;;;;;4329988;33;20547;-36
2021/03/11 01:20:18;;;;;;;6.07;1.00;;;-12.70;37.10;;;;;;4342085;33;20156;-35
2021/03/11 01:22:44;;;;;;;3.97;0.90;;;-12.80;37.60;;;;;;4341954;33;20683;-36
2021/03/11 01:25:12;;;;;;;7.50;1.00;;;-12.80;37.60;;;;;;4327027;33;20144;-38
2021/03/11 01:27:38;;;;;;;3.70;1.17;;;-12.80;37.60;;;;;;4338069;32;20150;-38
2021/03/11 01:30:07;;;;;;;5.03;1.23;;;-12.80;37.60;;;;;;4371696;32;20185;-35
2021/03/11 01:32:33;;;;;;;10.37;1.30;;;-12.70;37.70;;;;;;4359663;32;20143;-35
2021/03/11 01:35:00;;;;;;;6.60;0.67;;;-12.70;37.50;;;;;;4372150;32;20085;-37
2021/03/11 01:37:27;;;;;;;5.10;1.30;;;-12.70;37.40;;;;;;4344360;32;20090;-35
2021/03/11 01:39:53;;;;;;;4.60;0.80;;;-12.60;37.30;;;;;;4331916;32;20074;-35
2021/03/11 01:42:20;;;;;;;4.13;1.50;;;-12.60;37.30;;;;;;4344074;32;20077;-35
2021/03/11 01:44:46;;;;;;;4.93;1.30;;;-12.60;37.10;;;;;;4344282;32;20084;-35
2021/03/11 01:47:13;;;;;;;5.67;0.93;;;-12.60;37.00;;;;;;4344328;32;20521;-38
2021/03/11 01:49:43;;;;;;;3.63;0.97;;;-12.60;36.90;;;;;;4356917;32;20086;-35
2021/03/11 01:52:09;;;;;;;1.97;0.93;;;-12.50;36.80;;;;;;4344340;32;20574;-34
2021/03/11 01:54:36;;;;;;;6.27;1.33;;;-12.50;36.90;;;;;;4356478;32;20050;-35
2021/03/11 01:57:03;;;;;;;3.03;1.00;;;-12.60;36.80;;;;;;4356800;32;20530;-35
2021/03/11 01:59:29;;;;;;;8.13;1.57;;;-12.60;36.80;;;;;;4358474;32;20078;-34
2021/03/11 02:01:59;;;;;;;5.53;1.50;;;-12.70;36.80;;;;;;4314068;33;20078;-35
2021/03/11 02:04:26;;;;;;;4.03;1.20;;;-12.90;37.00;;;;;;4314832;33;20177;-34
2021/03/11 02:06:52;;;;;;;6.03;1.00;;;-13.00;37.50;;;;;;4326709;33;20145;-36
2021/03/11 02:09:19;;;;;;;5.50;1.27;;;-13.00;37.50;;;;;;4345906;32;20070;-37
2021/03/11 02:12:01;;;;;;;2.93;0.90;;;-13.10;37.70;;;;;;4343709;32;20060;-38
2021/03/11 02:15:07;;;;;;;4.63;0.97;;;-13.20;37.90;;;;;;4332142;32;20073;-36
2021/03/11 02:17:49;;;;;;;4.50;1.03;;;-13.30;38.00;;;;;;4345437;32;20074;-35
2021/03/11 02:20:34;;;;;;;9.53;1.23;;;-13.40;38.30;;;;;;4331841;32;20059;-36
2021/03/11 02:23:47;;;;;;;6.07;0.80;;;-13.60;38.40;;;;;;4356218;32;20065;-34
2021/03/11 02:27:03;;;;;;;2.77;1.00;;;-13.40;38.50;;;;;;4356543;32;20094;-34
2021/03/11 02:29:39;;;;;;;9.77;1.10;;;-13.50;38.40;;;;;;4299310;32;20074;-35
2021/03/11 02:32:08;;;;;;;6.53;1.17;;;-13.50;38.40;;;;;;4362118;32;20110;-34
2021/03/11 02:34:46;;;;;;;4.63;0.67;;;-13.50;38.40;;;;;;4389587;32;20061;-34
2021/03/11 02:37:35;;;;;;;4.80;0.60;;;-13.40;38.40;;;;;;4366050;32;20476;-35
2021/03/11 02:40:15;;;;;;;4.90;0.77;;;-13.20;38.30;;;;;;4403284;32;20438;-34
2021/03/11 02:42:41;;;;;;;0.00;0.00;;;-13.10;38.00;;;;;;4389400;32;20057;-36
2021/03/11 02:45:14;;;;;;;3.37;0.90;;;-13.00;37.90;;;;;;4389552;32;20076;-37
2021/03/11 02:47:41;;;;;;;1.83;0.77;;;-12.90;37.60;;;;;;4378031;32;20057;-36
2021/03/11 02:50:08;;;;;;;4.80;0.70;;;-12.90;37.40;;;;;;4376614;32;20796;-34
2021/03/11 02:52:35;;;;;;;2.73;0.70;;;-12.90;37.10;;;;;;4344878;32;20527;-34
2021/03/11 02:55:02;;;;;;;2.83;0.60;;;-13.00;36.70;;;;;;4333774;32;20085;-35
2021/03/11 02:57:30;;;;;;;2.20;0.40;;;-13.10;36.70;;;;;;4357794;32;20136;-36
2021/03/11 02:59:58;;;;;;;1.13;0.50;;;-13.20;36.70;;;;;;4357781;32;20070;-35
2021/03/11 03:02:25;;;;;;;1.23;0.60;;;-13.20;36.70;;;;;;4345436;32;20455;-35
2021/03/11 03:04:56;;;;;;;3.83;0.60;;;-13.30;36.50;;;;;;4358094;32;20081;-35
2021/03/11 03:07:23;;;;;;;0.80;0.50;;;-13.40;36.60;;;;;;4358147;32;20074;-35
2021/03/11 03:09:51;;;;;;;3.47;0.57;;;-13.40;36.70;;;;;;4335876;32;20519;-37
2021/03/11 03:12:18;;;;;;;6.67;0.70;;;-13.50;36.90;;;;;;4343793;32;20147;-34
2021/03/11 03:14:48;;;;;;;2.13;0.80;;;-13.60;37.20;;;;;;4343491;32;20062;-34
2021/03/11 03:17:18;;;;;;;2.00;0.60;;;-13.70;37.10;;;;;;4343502;32;20082;-34
2021/03/11 03:19:46;;;;;;;2.07;0.70;;;-13.70;37.40;;;;;;4313520;33;20634;-34
2021/03/11 03:22:13;;;;;;;1.77;0.60;;;-13.70;37.50;;;;;;4301448;33;20091;-34
2021/03/11 03:24:40;;;;;;;1.37;0.40;;;-13.70;37.60;;;;;;4313575;33;20071;-34
2021/03/11 03:27:11;;;;;;;3.60;0.70;;;-13.70;37.70;;;;;;4313802;33;20716;-35
2021/03/11 03:29:38;;;;;;;4.37;0.67;;;-13.60;37.70;;;;;;4313389;33;20166;-39
2021/03/11 03:32:05;;;;;;;3.13;0.70;;;-13.60;37.70;;;;;;4325922;33;20087;-36
2021/03/11 03:34:31;;;;;;;4.77;1.00;;;-13.50;37.70;;;;;;4313233;33;20062;-35
2021/03/11 03:36:59;;;;;;;2.87;0.70;;;-13.40;37.70;;;;;;4313806;33;20071;-34
2021/03/11 03:39:26;;;;;;;1.80;0.43;;;-13.40;37.50;;;;;;4301736;33;20077;-36
2021/03/11 03:41:56;;;;;;;1.93;0.50;;;-13.30;37.40;;;;;;4313887;33;20075;-36
2021/03/11 03:44:25;;;;;;;5.87;0.60;;;-13.20;37.40;;;;;;4301643;33;20527;-36
2021/03/11 03:46:52;;;;;;;2.90;1.13;;;-13.20;37.40;;;;;;4300973;33;20091;-36
2021/03/11 03:49:20;;;;;;;0.57;0.10;;;-13.10;37.40;;;;;;4301878;33;20643;-35
2021/03/11 03:51:52;;;;;;;1.00;0.50;;;-12.90;37.50;;;;;;4341563;32;20075;-38
2021/03/11 03:54:24;;;;;;;0.00;0.00;;;-12.70;37.70;;;;;;4354060;32;20132;-35
2021/03/11 03:57:23;;;;;;;0.33;0.20;;;-12.50;37.70;;;;;;4387499;32;20046;-44
2021/03/11 03:59:53;;;;;;;1.53;0.57;;;-12.20;37.80;;;;;;4325583;33;20166;-38
2021/03/11 04:02:20;;;;;;;0.73;0.40;;;-11.90;37.70;;;;;;4301538;33;20075;-38
2021/03/11 04:04:50;;;;;;;1.13;0.70;;;-11.60;37.80;;;;;;4302216;33;20100;-36
2021/03/11 04:07:21;;;;;;;3.20;0.37;;;-11.40;37.50;;;;;;4328933;33;20059;-38
2021/03/11 04:09:47;;;;;;;1.17;0.40;;;-11.10;37.00;;;;;;4311355;33;20062;-38
2021/03/11 04:12:16;;;;;;;1.00;0.60;;;-10.90;36.90;;;;;;4316064;33;20528;-39
2021/03/11 04:14:43;;;;;;;0.10;0.10;;;-10.70;37.00;;;;;;4316386;33;20066;-38
2021/03/11 04:17:10;;;;;;;1.30;1.00;;;-10.40;37.10;;;;;;4315707;33;20044;-38
2021/03/11 04:19:37;;;;;;;1.10;0.40;;;-10.20;36.50;;;;;;4316281;33;20605;-41
2021/03/11 04:22:04;;;;;;;3.97;1.00;;;-10.00;36.20;;;;;;4315893;33;20130;-37
2021/03/11 04:24:34;;;;;;;4.60;0.87;;;-9.80;36.20;;;;;;4313085;33;20182;-36
2021/03/11 04:27:01;;;;;;;0.50;0.37;;;-9.60;36.30;;;;;;4289614;33;20142;-40
2021/03/11 04:29:28;;;;;;;1.60;0.40;;;-9.40;35.80;;;;;;4289338;33;20557;-40
2021/03/11 04:31:55;;;;;;;2.63;1.40;;;-9.30;35.30;;;;;;4313340;33;20091;-39
2021/03/11 04:34:22;;;;;;;3.57;0.90;;;-9.10;35.20;;;;;;4317088;32;20063;-39
2021/03/11 04:36:49;;;;;;;2.47;0.80;;;-8.90;34.70;;;;;;4345801;32;20078;-40
2021/03/11 04:39:19;;;;;;;4.47;0.67;;;-8.70;34.30;;;;;;4344936;32;20063;-40
2021/03/11 04:41:47;;;;;;;11.37;1.13;;;-8.60;34.00;;;;;;4345375;32;20479;-40
2021/03/11 04:44:14;;;;;;;0.40;0.17;;;-8.50;33.60;;;;;;4345465;32;20126;-38
2021/03/11 04:46:40;;;;;;;13.00;1.17;;;-8.40;33.50;;;;;;4345187;32;20597;-38
2021/03/11 04:49:07;;;;;;;5.70;0.70;;;-8.30;32.50;;;;;;4344858;32;20517;-38
2021/03/11 04:51:34;;;;;;;4.73;0.77;;;-8.30;32.30;;;;;;4330526;33;20161;-38
2021/03/11 04:54:00;;;;;;;5.47;0.97;;;-8.20;32.40;;;;;;4327501;33;20153;-37
2021/03/11 04:56:28;;;;;;;1.63;0.57;;;-8.00;32.50;;;;;;4328391;33;20191;-37
2021/03/11 04:58:55;;;;;;;0.90;0.30;;;-7.80;32.50;;;;;;4342694;33;20209;-41
2021/03/11 05:01:25;;;;;;;0.57;0.50;;;-7.60;32.70;;;;;;4342547;33;20261;-37
2021/03/11 05:03:52;;;;;;;4.20;0.70;;;-7.40;32.50;;;;;;4328230;33;20071;-37
2021/03/11 05:06:18;;;;;;;1.53;0.53;;;-7.20;32.10;;;;;;4303107;33;20301;-36
2021/03/11 05:08:45;;;;;;;2.53;0.53;;;-7.00;31.70;;;;;;4318295;33;20632;-38
2021/03/11 05:11:12;;;;;;;1.80;0.47;;;-6.80;31.50;;;;;;4312669;33;20206;-36
2021/03/11 05:13:40;;;;;;;3.87;0.80;;;-6.60;31.30;;;;;;4288747;33;20074;-40
2021/03/11 05:16:07;;;;;;;2.53;0.40;;;-6.40;30.30;;;;;;4312284;33;20067;-40
2021/03/11 05:18:33;;;;;;;8.27;0.87;;;-6.30;29.60;;;;;;4313131;33;20105;-38
2021/03/11 05:21:00;;;;;;;1.50;0.47;;;-6.30;29.60;;;;;;4312976;33;20681;-37
2021/03/11 05:23:27;;;;;;;4.23;0.80;;;-6.20;29.30;;;;;;4325493;33;20155;-40
2021/03/11 05:25:53;;;;;;;4.47;0.50;;;-6.20;28.80;;;;;;4315459;33;20055;-38
2021/03/11 05:28:21;;;;;;;4.77;1.13;;;-6.10;28.50;;;;;;4312903;33;20067;-38
2021/03/11 05:30:48;;;;;;;5.87;1.00;;;-6.10;28.50;;;;;;4319128;33;20070;-41
2021/03/11 05:33:14;;;;;;;1.23;0.60;;;-6.10;28.70;;;;;;4329813;33;20063;-42
2021/03/11 05:35:41;;;;;;;1.20;0.57;;;-6.00;28.60;;;;;;4341782;33;20082;-40
2021/03/11 05:38:08;;;;;;;2.80;1.40;;;-5.90;28.30;;;;;;4341920;33;20145;-38
2021/03/11 05:40:35;;;;;;;2.20;0.70;;;-5.90;28.00;;;;;;4312307;33;20058;-39
2021/03/11 05:43:05;;;;;;;0.93;0.50;;;-5.80;27.70;;;;;;4312647;33;20504;-37
2021/03/11 05:45:31;;;;;;;3.60;0.50;;;-5.80;27.90;;;;;;4312904;33;20075;-39
2021/03/11 05:47:58;;;;;;;4.77;0.80;;;-5.70;28.00;;;;;;4312576;33;20664;-39
2021/03/11 05:50:24;;;;;;;4.83;0.37;;;-5.60;27.90;;;;;;4313148;33;20191;-37
2021/03/11 05:52:51;;;;;;;7.43;0.93;;;-5.50;28.20;;;;;;4295305;33;20182;-38
2021/03/11 05:55:21;;;;;;;4.03;0.80;;;-5.40;28.20;;;;;;4295817;33;20087;-39
2021/03/11 05:57:47;;;;;;;10.07;1.10;;;-5.30;28.30;;;;;;4283846;33;20110;-38
2021/03/11 06:00:16;;;;;;;6.50;1.03;;;-5.10;28.20;;;;;;4283467;33;20524;-38
2021/03/11 06:02:44;;;;;;;5.83;1.07;;;-4.90;27.80;;;;;;4283123;33;20075;-40
2021/03/11 06:05:17;;;;;;;5.10;0.83;;;-4.80;27.90;;;;;;4290482;33;20244;-42
2021/03/11 06:07:48;;;;;;;8.77;0.87;;;-4.70;27.20;;;;;;4300434;33;20064;-40
2021/03/11 06:10:16;;;;;;;5.97;1.10;;;-4.70;27.30;;;;;;4339324;33;20055;-38
2021/03/11 06:12:47;;;;;;;1.57;0.60;;;-4.60;27.20;;;;;;4356110;32;20497;-39
2021/03/11 06:15:35;;;;;;;0.97;0.77;;;-4.70;27.30;;;;;;4356464;32;20160;-40
2021/03/11 06:18:06;;;;;;;13.20;1.50;;;-4.80;27.30;;;;;;4356494;32;20117;-40
2021/03/11 06:20:33;;;;;;;2.33;0.63;;;-4.90;27.10;;;;;;4356911;32;20078;-40
2021/03/11 06:23:00;;;;;;;4.50;0.67;;;-4.90;27.70;;;;;;4358439;32;20198;-41
2021/03/11 06:25:29;;;;;;;5.97;0.80;;;-4.80;28.10;;;;;;4359748;32;20147;-42
2021/03/11 06:27:55;;;;;;;19.77;1.77;;;-4.60;27.90;;;;;;4358714;32;20145;-41
2021/03/11 06:30:33;;;;;;;12.03;0.70;;;-4.50;27.70;;;;;;4371201;32;20094;-42
2021/03/11 06:33:01;;;;;;;4.67;0.53;;;-4.30;27.70;;;;;;4370975;32;20202;-45
2021/03/11 06:35:28;;;;;;;11.13;1.10;;;-4.10;28.10;;;;;;4371392;32;20069;-44
2021/03/11 06:37:54;;;;;;;13.57;1.27;;;-3.80;28.00;;;;;;4371175;32;20158;-44
2021/03/11 06:40:27;;;;;;;15.03;2.00;;;-3.70;27.40;;;;;;4340777;33;20605;-43
2021/03/11 06:43:07;;;;;;;4.00;0.70;;;-3.50;27.70;;;;;;4328606;33;20078;-42
2021/03/11 06:45:34;;;;;;;9.10;1.00;;;-3.30;27.70;;;;;;4341520;33;20110;-43
2021/03/11 06:48:29;;;;;;;8.27;0.97;;;-3.10;27.60;;;;;;4353350;32;20065;-44
2021/03/11 06:51:00;;;;;;;4.43;0.90;;;-2.70;27.60;;;;;;4371257;32;20523;-42
2021/03/11 06:53:27;;;;;;;3.27;0.67;;;-2.50;27.30;;;;;;4359141;32;20094;-40
2021/03/11 06:55:54;;;;;;;7.50;0.83;;;-2.40;27.30;;;;;;4358481;32;20070;-43
2021/03/11 06:58:25;;;;;;;5.87;0.83;;;-2.10;27.30;;;;;;4358788;32;20583;-43
2021/03/11 07:01:08;;;;;;;3.70;1.23;;;-1.80;27.40;;;;;;4346328;32;20093;-44
2021/03/11 07:03:43;;;;;;;6.23;1.27;;;-1.50;26.80;;;;;;4371152;32;20094;-43
2021/03/11 07:06:09;;;;;;;;;;;-1.10;27.10;;;;;;4371668;32;20121;-43
2021/03/11 07:08:48;;;;;;;10.20;1.17;;;-0.70;27.20;;;;;;4371279;32;20382;-43
2021/03/11 07:11:14;;;;;;;9.70;1.13;;;-0.50;26.60;;;;;;4370414;32;20439;-45
2021/03/11 07:13:42;;;;;;;11.50;0.83;;;-0.30;26.70;;;;;;4362199;32;20065;-45
2021/03/11 07:16:22;;;;;;;5.83;0.97;;;-0.10;26.60;;;;;;4388445;32;20177;-45
2021/03/11 07:19:16;;;;;;;4.00;1.07;;;0.30;26.70;;;;;;4387056;32;20074;-43
2021/03/11 07:21:48;;;;;;;6.70;0.63;;;0.60;26.10;;;;;;4366862;32;20058;-43
2021/03/11 07:24:37;;;;;;;6.30;0.97;;;0.70;25.60;;;;;;4388497;32;20098;-44
2021/03/11 07:27:06;;;;;;;8.20;0.97;;;0.80;25.30;;;;;;4388632;32;20153;-44
2021/03/11 07:29:32;;;;;;;0.97;0.40;;;0.70;25.00;;;;;;4362088;32;20473;-44
2021/03/11 07:32:04;;;;;;;18.87;1.60;;;0.60;24.60;;;;;;4387000;32;20571;-43
2021/03/11 07:34:34;;;;;;;1.53;0.53;;;0.40;24.60;;;;;;4388394;32;20104;-44
2021/03/11 07:37:01;;;;;;;8.73;1.10;;;0.10;24.30;;;;;;4388297;32;20137;-44
2021/03/11 07:39:37;;;;;;;1.07;0.40;;;-0.10;24.70;;;;;;4389744;32;20092;-44
2021/03/11 07:42:07;;;;;;;2.60;0.60;;;-0.40;24.60;;;;;;4378527;32;20157;-45
2021/03/11 07:44:34;;;;;;;1.63;0.40;;;-0.60;25.10;;;;;;4391279;32;20078;-44
2021/03/11 07:47:01;;;;;;;4.57;0.80;;;-0.70;25.30;;;;;;4391391;32;20514;-44
2021/03/11 07:49:28;;;;;;;16.90;1.27;;;-0.80;25.50;;;;;;4389629;32;20146;-45
2021/03/11 07:51:55;;;;;;;3.70;0.27;;;-0.90;25.60;;;;;;4391255;32;20078;-44
2021/03/11 07:54:23;;;;;;;4.37;0.50;;;-1.00;25.70;;;;;;4391102;32;20078;-47
2021/03/11 07:56:50;;;;;;;2.50;0.47;;;-1.10;25.80;;;;;;4377452;32;20053;-44
2021/03/11 07:59:17;;;;;;;2.23;0.50;;;-1.10;26.00;;;;;;4390949;32;20112;-44
2021/03/11 08:02:08;;;;;;;1.03;0.33;;;-1.10;25.80;;;;;;4389372;32;20097;-44
2021/03/11 08:04:35;;;;;;;4.83;0.63;;;-1.20;25.80;;;;;;4377569;32;20062;-44
2021/03/11 08:07:25;;;;;;;6.00;0.90;;;-1.20;25.80;;;;;;4377138;32;20077;-44
2021/03/11 08:09:56;;;;;;;0.87;0.30;;;-1.40;26.20;;;;;;4390610;32;20434;-43
2021/03/11 08:12:37;;;;;;;10.40;1.20;;;-1.40;26.50;;;;;;4388989;32;20062;-44
2021/03/11 08:15:18;;;;;;;7.77;0.83;;;-1.40;26.30;;;;;;4391091;32;20094;-45
2021/03/11 08:17:47;;;;;;;6.77;2.80;;;-1.50;26.40;;;;;;4388560;32;20077;-45
2021/03/11 08:20:19;;;;;;;1.87;0.80;;;-1.50;26.90;;;;;;4390638;32;20533;-44
2021/03/11 08:22:52;;;;;;;4.07;0.57;;;-1.40;26.90;;;;;;4390608;32;20575;-44
2021/03/11 08:25:36;;;;;;;6.37;0.70;;;-1.30;26.40;;;;;;4390421;32;20514;-45
2021/03/11 08:28:10;;;;;;;2.67;0.40;;;-1.20;26.90;;;;;;4390870;32;20057;-45
2021/03/11 08:30:40;;;;;;;3.65;0.65;;;-1.20;26.80;;;;;;4390513;32;20093;-45
2021/03/11 08:33:11;;;;;;;2.33;0.43;;;-1.20;26.90;;;;;;4390122;32;20058;-45
2021/03/11 08:35:41;;;;;;;6.40;0.93;;;-1.20;26.90;;;;;;4389212;32;20058;-44
2021/03/11 08:38:20;;;;;;;2.50;0.60;;;-1.20;26.90;;;;;;4364374;32;20147;-45
2021/03/11 08:40:54;;;;;;;5.87;0.83;;;-1.30;26.60;;;;;;4390497;32;20069;-45
2021/03/11 08:43:39;;;;;;;7.35;0.80;;;-1.40;26.30;;;;;;4388490;32;20161;-43
2021/03/11 08:46:16;;;;;;;4.15;0.75;;;-1.70;26.50;;;;;;4390499;32;20085;-44
2021/03/11 08:49:01;;;;;;;0.63;0.20;;;-1.80;26.80;;;;;;4388694;32;20554;-41
2021/03/11 08:51:27;;;;;;;4.12;0.80;;;-2.00;27.20;;;;;;4389607;32;20244;-43
2021/03/11 08:53:55;;;;;;;19.53;1.80;;;-2.00;27.40;;;;;;4389894;32;20536;-44
2021/03/11 08:56:21;;;;;;;1.23;0.30;;;-2.00;27.50;;;;;;4390379;32;20069;-43
2021/03/11 08:58:55;;;;;;;9.83;0.93;;;-2.00;27.50;;;;;;4389590;32;20533;-43
2021/03/11 09:01:53;;;;;;;7.33;1.13;;;-1.90;27.70;;;;;;4388160;32;20088;-42
2021/03/11 09:04:29;;;;;;;4.70;0.50;;;-1.90;27.70;;;;;;4390360;32;20089;-43
2021/03/11 09:06:59;;;;;;;5.33;1.13;;;-1.80;27.50;;;;;;4389813;32;20164;-44
2021/03/11 09:09:51;;;;;;;8.43;0.90;;;-1.80;27.70;;;;;;4388431;32;20073;-43
2021/03/11 09:12:27;;;;;;;12.70;1.60;;;-2.00;27.80;;;;;;4389890;32;20525;-43
2021/03/11 09:14:55;;;;;;;6.30;1.10;;;-2.00;28.30;;;;;;4344995;32;20084;-42
2021/03/11 09:17:29;;;;;;;8.63;1.23;;;-1.90;28.40;;;;;;4344929;32;20146;-43
2021/03/11 09:20:17;;;;;;;8.13;3.40;;;-1.80;28.20;;;;;;4344881;32;20150;-42
2021/03/11 09:22:48;;;;;;;4.53;0.90;;;-1.80;28.30;;;;;;4356623;32;20073;-42
2021/03/11 09:25:23;;;;;;;5.43;1.17;;;-1.90;28.10;;;;;;4327379;33;20075;-43
2021/03/11 09:27:55;;;;;;;1.98;0.55;;;-1.80;28.20;;;;;;4303027;33;20086;-42
2021/03/11 09:30:36;;;;;;;2.50;0.63;;;-1.80;28.50;;;;;;4327195;33;20556;-42
2021/03/11 09:33:20;;;;;;;2.73;0.67;;;-1.70;28.50;;;;;;4327936;33;20069;-40
2021/03/11 09:35:47;;;;;;;5.10;0.70;;;-1.60;28.40;;;;;;4327472;33;20082;-44
2021/03/11 09:38:24;;;;;;;2.00;0.50;;;-1.50;28.50;;;;;;4315753;33;20138;-41
2021/03/11 09:40:58;;;;;;;6.27;0.83;;;-1.50;28.80;;;;;;4327362;33;20472;-42
2021/03/11 09:43:29;;;;;;;9.77;1.00;;;-1.50;28.80;;;;;;4314997;33;20085;-41
2021/03/11 09:45:58;;;;;;;4.63;0.60;;;-1.40;28.90;;;;;;4342102;32;20054;-42
2021/03/11 09:48:29;;;;;;;14.63;1.30;;;-1.50;28.60;;;;;;4332565;32;20239;-40
2021/03/11 09:51:27;;;;;;;5.67;1.53;;;-1.50;28.80;;;;;;4356677;32;20062;-42
2021/03/11 09:54:03;;;;;;;3.47;0.47;;;-1.50;28.80;;;;;;4326711;33;20198;-40
2021/03/11 09:56:40;;;;;;;4.53;0.40;;;-1.50;28.60;;;;;;4335855;33;20074;-41
2021/03/11 09:59:12;;;;;;;2.23;0.30;;;-1.50;28.70;;;;;;4342215;33;20061;-40
2021/03/11 10:01:44;;;;;;;31.13;2.00;;;-1.50;28.90;;;;;;4360531;32;20065;-40
2021/03/11 10:04:30;;;;;;;2.40;0.30;;;-1.40;29.00;;;;;;4372153;32;20078;-42
2021/03/11 10:07:01;;;;;;;9.43;0.63;;;-1.30;29.20;;;;;;4348291;32;20069;-42
2021/03/11 10:09:42;;;;;;;4.33;0.70;;;-1.10;29.40;;;;;;4372264;32;20521;-43
2021/03/11 10:12:09;;;;;;;1.10;0.77;;;-0.90;29.10;;;;;;4372156;32;20515;-41
2021/03/11 10:14:37;;;;;;;9.80;1.10;;;-0.90;28.80;;;;;;4371460;32;20632;-41
2021/03/11 10:17:06;;;;;;;5.83;1.53;;;-0.70;28.80;;;;;;4371446;32;20602;-43
2021/03/11 10:19:36;;;;;;;2.40;0.70;;;-0.60;28.90;;;;;;4326923;33;20098;-44
2021/03/11 10:22:05;;;;;;;8.60;1.77;;;-0.50;28.70;;;;;;4327058;33;20114;-43
2021/03/11 10:24:51;;;;;;;0.80;0.27;;;-0.40;28.60;;;;;;4326950;33;20052;-43
2021/03/11 10:27:32;;;;;;;1.60;0.30;;;-0.50;28.70;;;;;;4314686;33;20667;-44
2021/03/11 10:30:20;;;;;;;2.20;0.20;;;-0.50;28.60;;;;;;4327046;33;20151;-43
2021/03/11 10:33:03;;;;;;;2.00;0.67;;;-0.50;29.30;;;;;;4344403;32;20074;-40
2021/03/11 10:35:34;;;;;;;9.57;1.07;;;-0.50;28.80;;;;;;4344203;32;20164;-42
2021/03/11 10:38:18;;;;;;;1.07;0.30;;;-0.40;28.90;;;;;;4356555;32;20158;-42
2021/03/11 10:40:44;;;;;;;2.60;0.60;;;-0.40;29.00;;;;;;4344004;32;20136;-45
2021/03/11 10:43:29;;;;;;;3.57;0.50;;;-0.20;29.10;;;;;;4344294;32;20165;-44
2021/03/11 10:45:56;;;;;;;7.47;0.52;;;-0.20;28.90;;;;;;4356093;32;20535;-44
2021/03/11 10:48:22;;;;;;;7.17;1.17;;;0.00;29.20;;;;;;4355954;32;20193;-43
2021/03/11 10:50:52;;;;;;;5.70;0.50;;;0.10;30.00;;;;;;4355989;32;20631;-42
2021/03/11 10:53:22;;;;;;;3.03;0.57;;;0.30;29.30;;;;;;4355811;32;20058;-42
2021/03/11 10:55:49;;;;;;;7.97;0.80;;;0.50;29.20;;;;;;4343844;32;20070;-43
2021/03/11 10:58:24;;;;;;;14.40;1.43;;;0.60;28.80;;;;;;4403997;32;20520;-42
2021/03/11 11:00:51;;;;;;;;;;;0.70;29.30;;;;;;4390082;32;20103;-44
2021/03/11 11:03:21;;;;;;;3.13;0.43;;;0.80;28.80;;;;;;4376780;32;19975;-44
2021/03/11 11:05:47;;;;;;;9.10;0.93;;;0.90;28.50;;;;;;4403162;32;20141;-42
2021/03/11 11:08:14;;;;;;;11.60;0.60;;;0.80;28.50;;;;;;4403139;32;20546;-44
2021/03/11 11:10:40;;;;;;;4.53;0.60;;;0.80;28.60;;;;;;4388403;32;20209;-43
2021/03/11 11:13:07;;;;;;;13.77;0.90;;;0.80;28.40;;;;;;4387794;32;20052;-44
2021/03/11 11:15:34;;;;;;;2.10;0.60;;;0.90;28.60;;;;;;4388196;32;20096;-42
2021/03/11 11:18:01;;;;;;;1.70;0.50;;;0.80;28.30;;;;;;4387874;32;20505;-41
2021/03/11 11:20:29;;;;;;;4.67;0.67;;;0.80;28.30;;;;;;4388352;32;20089;-41
2021/03/11 11:22:55;;;;;;;3.53;0.70;;;0.80;28.30;;;;;;4387761;32;20552;-43
2021/03/11 11:25:22;;;;;;;1.90;0.57;;;0.80;28.30;;;;;;4386188;32;20057;-43
2021/03/11 11:27:48;;;;;;;9.50;0.67;;;0.80;28.30;;;;;;4386213;32;20062;-43
2021/03/11 11:30:16;;;;;;;1.33;0.47;;;0.80;28.50;;;;;;4387923;32;20555;-42
2021/03/11 11:32:42;;;;;;;4.10;0.50;;;0.80;28.50;;;;;;4388403;32;20139;-43
2021/03/11 11:35:10;;;;;;;7.93;0.90;;;0.90;28.60;;;;;;4373889;32;20069;-43
2021/03/11 11:37:36;;;;;;;7.33;1.20;;;0.90;28.60;;;;;;4387817;32;20128;-44
2021/03/11 11:40:04;;;;;;;1.90;0.70;;;0.90;28.40;;;;;;4386533;32;20529;-43
2021/03/11 11:42:30;;;;;;;2.03;0.60;;;1.00;28.60;;;;;;4387644;32;20122;-44
2021/03/11 11:44:57;;;;;;;6.73;1.13;;;1.00;28.50;;;;;;4385879;32;20054;-44
2021/03/11 11:47:23;;;;;;;10.07;1.03;;;1.00;28.60;;;;;;4385995;32;20058;-44
2021/03/11 11:49:50;;;;;;;7.33;1.13;;;1.00;28.60;;;;;;4388180;32;20060;-45
2021/03/11 11:52:16;;;;;;;4.13;0.50;;;1.00;28.50;;;;;;4388206;32;20073;-43
2021/03/11 11:54:43;;;;;;;5.63;0.93;;;1.00;28.40;;;;;;4388108;32;20590;-44
2021/03/11 11:57:09;;;;;;;7.57;0.80;;;1.00;28.10;;;;;;4387550;32;20149;-44
2021/03/11 11:59:36;;;;;;;7.17;0.30;;;1.00;28.50;;;;;;4387715;32;20148;-44
2021/03/11 12:02:02;;;;;;;13.97;1.63;;;1.00;28.70;;;;;;4388131;32;20050;-43
2021/03/11 12:04:30;;;;;;;2.00;0.40;;;1.00;28.60;;;;;;4386483;32;20088;-43
2021/03/11 12:06:58;;;;;;;4.47;0.73;;;1.10;28.40;;;;;;4387714;32;20526;-44
2021/03/11 12:09:24;;;;;;;11.70;0.77;;;1.10;28.80;;;;;;4387909;32;20157;-45
2021/03/11 12:11:51;;;;;;;18.33;1.80;;;1.00;28.50;;;;;;4386133;32;20477;-44
2021/03/11 12:14:18;;;;;;;0.80;0.40;;;1.10;28.80;;;;;;4387854;32;20084;-43
2021/03/11 12:16:45;;;;;;;0.53;0.40;;;1.10;28.50;;;;;;4387528;32;20052;-45
2021/03/11 12:19:12;;;;;;;18.60;1.50;;;1.10;28.10;;;;;;4385983;32;20101;-43
2021/03/11 12:21:38;;;;;;;2.40;1.67;;;1.10;28.20;;;;;;4387757;32;20533;-44
2021/03/11 12:24:05;;;;;;;1.23;0.53;;;1.10;28.40;;;;;;4386115;32;20084;-42
2021/03/11 12:26:32;;;;;;;12.70;0.97;;;1.20;28.30;;;;;;4388041;32;20070;-43
2021/03/11 12:29:00;;;;;;;10.33;1.00;;;1.20;28.40;;;;;;4390422;32;20200;-44
2021/03/11 12:31:28;;;;;;;7.40;0.40;;;1.30;28.60;;;;;;4390499;32;20137;-44
2021/03/11 12:33:56;;;;;;;4.40;1.07;;;1.40;28.60;;;;;;4389171;32;20088;-42
2021/03/11 12:36:23;;;;;;;18.47;0.97;;;1.40;28.40;;;;;;4388924;32;20449;-42
2021/03/11 12:38:51;;;;;;;6.30;0.80;;;1.40;28.30;;;;;;4376711;32;20085;-45
2021/03/11 12:41:22;;;;;;;4.03;0.60;;;1.30;28.50;;;;;;4389382;32;20059;-43
2021/03/11 12:43:49;;;;;;;2.13;0.70;;;1.20;28.60;;;;;;4390097;32;20510;-43
2021/03/11 12:46:16;;;;;;;1.80;0.83;;;1.30;28.90;;;;;;4390623;32;20180;-44
2021/03/11 12:48:42;;;;;;;1.50;0.40;;;1.20;29.50;;;;;;4390195;32;20066;-42
2021/03/11 12:51:09;;;;;;;7.93;1.20;;;1.20;29.20;;;;;;4389908;32;20064;-40
2021/03/11 12:53:35;;;;;;;6.13;0.87;;;1.20;29.30;;;;;;4388746;32;20525;-42
2021/03/11 12:56:02;;;;;;;3.53;0.70;;;1.20;29.30;;;;;;4388899;32;20157;-37
2021/03/11 12:58:28;;;;;;;2.40;0.80;;;1.10;29.30;;;;;;4388589;32;20516;-39
2021/03/11 13:00:55;;;;;;;3.60;0.80;;;1.10;29.30;;;;;;4389783;32;20062;-41
2021/03/11 13:03:21;;;;;;;4.00;0.90;;;0.90;29.40;;;;;;4390053;32;20073;-45